Time;durP1;ratioP1;P1;durP2;ratioP2;P2;SDS_P1;SDS_P2;PMS_P1;PMS_P2;Temp;Humidity;BMP_temperature;BMP_pressure;BME280_temperature;BME280_humidity;BME280_pressure;Samples;Min_cycle;Max_cycle;Signal;HPM_P1;HPM_P2
2022/03/05 05:02:00;;;;;;;17.13;9.80;;;0.20;99.90;;;;;;5257504;23;20489;-76
2022/03/05 05:04:26;;;;;;;24.20;9.73;;;0.20;99.90;;;;;;4956624;28;20557;-75
2022/03/05 05:06:53;;;;;;;19.83;10.53;;;0.10;99.90;;;;;;4956680;28;20457;-75
2022/03/05 05:09:20;;;;;;;20.27;11.53;;;0.10;99.90;;;;;;4956139;28;20457;-75
2022/03/05 05:11:47;;;;;;;18.53;10.30;;;0.10;99.90;;;;;;4956110;28;20568;-75
2022/03/05 05:14:14;;;;;;;17.77;9.80;;;0.10;99.90;;;;;;4956177;28;20462;-75
2022/03/05 05:16:41;;;;;;;19.23;10.30;;;0.10;99.90;;;;;;4955623;28;20831;-74
2022/03/05 05:19:28;;;;;;;18.77;10.37;;;0.10;99.90;;;;;;4954940;28;20457;-74
2022/03/05 05:21:56;;;;;;;22.53;10.80;;;0.10;99.90;;;;;;4955199;28;20473;-74
2022/03/05 05:24:24;;;;;;;19.30;10.60;;;0.00;99.90;;;;;;4954973;28;20461;-74
2022/03/05 05:26:51;;;;;;;19.97;10.50;;;0.00;99.90;;;;;;4954815;28;20508;-74
2022/03/05 05:29:18;;;;;;;18.83;11.10;;;0.00;99.90;;;;;;4954638;28;20462;-74
2022/03/05 05:31:45;;;;;;;22.13;11.30;;;0.00;99.90;;;;;;4954783;28;20473;-74
2022/03/05 05:34:14;;;;;;;19.07;10.90;;;0.00;99.90;;;;;;4954910;28;20460;-74
2022/03/05 05:36:41;;;;;;;22.60;11.07;;;0.00;99.90;;;;;;4955083;28;20456;-74
2022/03/05 05:39:08;;;;;;;23.10;12.00;;;0.00;99.90;;;;;;4954483;28;20457;-74
2022/03/05 05:41:36;;;;;;;21.23;11.10;;;-0.10;99.90;;;;;;4954617;28;20993;-74
2022/03/05 05:44:04;;;;;;;22.13;11.67;;;0.00;99.90;;;;;;4954571;28;20484;-74
2022/03/05 05:46:31;;;;;;;22.83;11.77;;;0.00;99.90;;;;;;4954145;28;20960;-74
2022/03/05 05:48:58;;;;;;;19.80;11.50;;;-0.10;99.90;;;;;;4954439;28;20465;-74
2022/03/05 05:51:29;;;;;;;23.70;11.33;;;-0.10;99.90;;;;;;4954594;28;20478;-74
2022/03/05 05:53:57;;;;;;;23.63;12.30;;;-0.10;99.90;;;;;;4954636;28;20462;-74
2022/03/05 05:56:24;;;;;;;21.93;11.47;;;-0.10;99.90;;;;;;4954263;28;20524;-74
2022/03/05 05:58:51;;;;;;;19.03;11.80;;;-0.10;99.90;;;;;;4954401;28;20473;-74
2022/03/05 06:01:18;;;;;;;23.63;11.77;;;-0.10;99.90;;;;;;4954253;28;20572;-74
2022/03/05 06:03:45;;;;;;;23.90;11.80;;;-0.10;99.90;;;;;;4954467;28;20496;-74
2022/03/05 06:06:12;;;;;;;23.20;11.47;;;-0.10;99.90;;;;;;4954223;28;20507;-74
2022/03/05 06:08:41;;;;;;;21.20;10.97;;;-0.10;99.90;;;;;;4954232;28;20461;-74
2022/03/05 06:11:08;;;;;;;21.37;11.30;;;-0.10;99.90;;;;;;4953705;28;20480;-74
2022/03/05 06:13:35;;;;;;;21.73;11.50;;;-0.10;99.90;;;;;;4954707;28;20461;-74
2022/03/05 06:16:01;;;;;;;22.50;11.07;;;-0.20;99.90;;;;;;4954350;28;20468;-74
2022/03/05 06:18:29;;;;;;;21.17;11.50;;;-0.20;99.90;;;;;;4954166;28;20458;-73
2022/03/05 06:20:56;;;;;;;29.60;13.33;;;-0.20;99.90;;;;;;4953819;28;21027;-73
2022/03/05 06:23:23;;;;;;;21.67;11.63;;;-0.20;99.90;;;;;;4953394;28;20453;-74
2022/03/05 06:25:52;;;;;;;26.57;12.20;;;-0.20;99.90;;;;;;4954136;28;20501;-74
2022/03/05 06:28:18;;;;;;;23.20;11.80;;;-0.20;99.90;;;;;;4954014;28;20453;-74
2022/03/05 06:30:46;;;;;;;19.67;10.63;;;-0.20;99.90;;;;;;4953674;28;20488;-73
2022/03/05 06:33:13;;;;;;;22.50;11.90;;;-0.20;99.90;;;;;;4954116;28;20901;-73
2022/03/05 06:35:39;;;;;;;22.10;12.50;;;-0.20;99.90;;;;;;4954046;28;20454;-74
2022/03/05 06:38:07;;;;;;;22.70;11.63;;;-0.20;99.90;;;;;;4953754;28;20468;-74
2022/03/05 06:40:34;;;;;;;21.70;12.83;;;-0.20;99.90;;;;;;4953509;28;20845;-73
2022/03/05 06:43:02;;;;;;;22.43;11.97;;;-0.20;99.90;;;;;;4954424;28;20464;-74
2022/03/05 06:45:29;;;;;;;22.23;12.20;;;-0.10;99.90;;;;;;4953894;28;20587;-74
2022/03/05 06:47:56;;;;;;;24.17;13.17;;;-0.20;99.90;;;;;;4954038;28;20842;-73
2022/03/05 06:50:23;;;;;;;21.03;12.20;;;-0.10;99.90;;;;;;4953223;28;20974;-75
2022/03/05 06:52:50;;;;;;;25.00;12.17;;;-0.10;99.90;;;;;;4953628;28;20991;-74
2022/03/05 06:55:17;;;;;;;24.30;12.97;;;-0.10;99.90;;;;;;4953819;28;20460;-74
2022/03/05 06:57:45;;;;;;;28.43;13.67;;;-0.10;99.90;;;;;;4953705;28;20553;-74
2022/03/05 07:00:15;;;;;;;20.93;11.80;;;-0.10;99.90;;;;;;4953289;28;21028;-74
2022/03/05 07:02:43;;;;;;;27.30;14.23;;;0.00;99.90;;;;;;4954096;28;20875;-74
2022/03/05 07:05:10;;;;;;;19.77;12.20;;;0.00;99.90;;;;;;4953503;28;20456;-74
2022/03/05 07:07:37;;;;;;;23.07;12.37;;;0.00;99.90;;;;;;4953696;28;20450;-73
2022/03/05 07:10:05;;;;;;;29.47;12.40;;;0.00;99.90;;;;;;4953222;28;20967;-72
2022/03/05 07:12:32;;;;;;;25.77;12.10;;;0.00;99.90;;;;;;4953766;28;20480;-72
2022/03/05 07:14:59;;;;;;;23.10;12.97;;;0.00;99.90;;;;;;4953637;28;20468;-73
2022/03/05 07:17:27;;;;;;;22.63;12.50;;;0.10;99.90;;;;;;4953507;28;20457;-73
2022/03/05 07:19:55;;;;;;;21.70;11.87;;;0.10;99.90;;;;;;4953126;28;20493;-73
2022/03/05 07:22:22;;;;;;;23.97;12.77;;;0.20;99.90;;;;;;4953425;28;20848;-73
2022/03/05 07:24:49;;;;;;;21.73;12.00;;;0.20;99.90;;;;;;4953600;28;20457;-73
2022/03/05 07:27:16;;;;;;;22.60;12.60;;;0.30;99.90;;;;;;4953418;28;20485;-73
2022/03/05 07:29:43;;;;;;;23.77;12.57;;;0.30;99.90;;;;;;4953109;28;20941;-73
2022/03/05 07:32:11;;;;;;;26.47;12.60;;;0.40;99.90;;;;;;4953110;28;20489;-73
2022/03/05 07:34:39;;;;;;;19.47;11.80;;;0.40;99.90;;;;;;4955050;28;20453;-73
2022/03/05 07:37:06;;;;;;;20.03;10.87;;;0.50;99.90;;;;;;4957321;28;20513;-72
2022/03/05 07:39:33;;;;;;;23.27;12.43;;;0.50;99.90;;;;;;4956525;28;20811;-72
2022/03/05 07:42:00;;;;;;;22.37;12.67;;;0.60;99.90;;;;;;4956753;28;21052;-72
2022/03/05 07:44:26;;;;;;;26.63;11.90;;;0.70;99.90;;;;;;4956726;28;21024;-73
2022/03/05 07:46:53;;;;;;;24.23;12.77;;;0.90;99.90;;;;;;4956496;28;20592;-73
2022/03/05 07:49:21;;;;;;;21.20;12.33;;;1.00;99.90;;;;;;4956320;28;20950;-72
2022/03/05 07:51:49;;;;;;;28.87;12.17;;;1.10;99.90;;;;;;4956695;28;21051;-73
2022/03/05 07:54:16;;;;;;;22.30;12.50;;;1.10;99.90;;;;;;4956895;28;20453;-72
2022/03/05 07:56:43;;;;;;;27.00;13.67;;;1.20;99.90;;;;;;4956875;28;20449;-72
2022/03/05 07:59:10;;;;;;;24.00;12.83;;;1.40;99.90;;;;;;4956408;28;20449;-73
2022/03/05 08:01:37;;;;;;;33.87;17.67;;;1.50;99.90;;;;;;4956333;28;20497;-73
2022/03/05 08:04:04;;;;;;;37.77;16.30;;;1.60;99.90;;;;;;4956759;28;20457;-73
2022/03/05 08:06:31;;;;;;;31.20;14.17;;;1.80;99.90;;;;;;4956466;28;21047;-73
2022/03/05 08:08:59;;;;;;;24.10;13.30;;;1.90;99.90;;;;;;4956382;28;20485;-73
2022/03/05 08:11:26;;;;;;;26.63;12.50;;;2.10;99.90;;;;;;4956381;28;20563;-72
2022/03/05 08:13:53;;;;;;;24.10;13.47;;;2.20;99.90;;;;;;4956264;28;20519;-72
2022/03/05 08:16:20;;;;;;;23.57;12.90;;;2.30;99.90;;;;;;4956425;28;20457;-72
2022/03/05 08:18:47;;;;;;;20.53;12.57;;;2.40;99.90;;;;;;4956407;28;20460;-72
2022/03/05 08:21:14;;;;;;;18.80;11.53;;;2.60;99.90;;;;;;4956497;28;20484;-72
2022/03/05 08:23:41;;;;;;;18.43;11.70;;;2.70;99.90;;;;;;4958022;28;20453;-72
2022/03/05 08:26:13;;;;;;;20.60;12.17;;;2.80;99.90;;;;;;4956069;28;20496;-73
2022/03/05 08:28:40;;;;;;;25.07;13.17;;;3.10;99.90;;;;;;4956308;28;20470;-72
2022/03/05 08:31:07;;;;;;;26.53;13.13;;;3.20;99.90;;;;;;4956015;28;21007;-73
2022/03/05 08:33:34;;;;;;;21.37;12.17;;;3.30;99.90;;;;;;4956065;28;20984;-74
2022/03/05 08:36:02;;;;;;;17.80;11.13;;;3.40;99.90;;;;;;4956015;28;20956;-73
2022/03/05 08:38:31;;;;;;;18.57;11.20;;;3.60;99.90;;;;;;4955806;28;20954;-73
2022/03/05 08:40:59;;;;;;;23.60;13.47;;;3.70;99.90;;;;;;4955470;28;20555;-73
2022/03/05 08:43:27;;;;;;;22.30;13.13;;;3.80;99.90;;;;;;4955951;28;20437;-73
2022/03/05 08:45:54;;;;;;;21.77;12.30;;;4.00;99.90;;;;;;4955431;28;20493;-73
2022/03/05 08:48:22;;;;;;;19.53;11.83;;;4.10;99.90;;;;;;4955687;28;20461;-73
2022/03/05 08:50:49;;;;;;;22.67;13.03;;;4.30;99.90;;;;;;4955189;28;20854;-73
2022/03/05 08:53:26;;;;;;;21.37;12.30;;;4.40;99.90;;;;;;4955492;28;21167;-73
2022/03/05 08:55:53;;;;;;;20.57;12.60;;;4.60;99.90;;;;;;4955846;28;20552;-74
2022/03/05 08:58:20;;;;;;;22.53;12.70;;;4.70;99.90;;;;;;4955595;28;20548;-73
2022/03/05 09:00:50;;;;;;;25.03;13.10;;;5.00;99.90;;;;;;4955285;28;20574;-73
2022/03/05 09:03:17;;;;;;;19.00;11.60;;;5.10;99.90;;;;;;4955797;28;20449;-73
2022/03/05 09:05:45;;;;;;;17.37;11.13;;;5.10;99.90;;;;;;4955407;28;20551;-73
2022/03/05 09:08:13;;;;;;;19.10;12.60;;;5.30;99.90;;;;;;4955216;28;20512;-73
2022/03/05 09:10:39;;;;;;;22.53;11.53;;;5.40;99.90;;;;;;4955001;28;21021;-74
2022/03/05 09:13:46;;;;;;;17.63;11.40;;;5.50;99.90;;;;;;4955574;28;20453;-73
2022/03/05 09:16:15;;;;;;;23.20;11.67;;;5.70;99.90;;;;;;4933604;28;20469;-73
2022/03/05 09:18:42;;;;;;;21.10;11.10;;;5.80;99.90;;;;;;4954816;28;20465;-73
2022/03/05 09:21:09;;;;;;;15.33;10.10;;;5.90;99.90;;;;;;4955315;28;20472;-73
2022/03/05 09:23:36;;;;;;;14.97;10.40;;;6.10;99.90;;;;;;4955258;28;20463;-73
2022/03/05 09:26:03;;;;;;;15.27;10.70;;;6.20;99.90;;;;;;4954979;28;21107;-73
2022/03/05 09:28:30;;;;;;;19.83;11.37;;;6.30;99.90;;;;;;4954962;28;20461;-73
2022/03/05 09:30:58;;;;;;;21.93;10.30;;;6.50;99.90;;;;;;4954645;28;20481;-74
2022/03/05 09:33:27;;;;;;;18.03;10.77;;;6.60;99.90;;;;;;4955157;28;20464;-73
2022/03/05 09:35:54;;;;;;;14.10;9.47;;;6.80;99.90;;;;;;4955107;28;20549;-73
2022/03/05 09:38:21;;;;;;;13.17;8.50;;;7.00;99.90;;;;;;4954663;29;20980;-73
2022/03/05 09:40:48;;;;;;;14.13;8.70;;;7.20;99.90;;;;;;4954477;28;20491;-73
2022/03/05 09:43:16;;;;;;;13.13;8.70;;;7.20;99.50;;;;;;4954547;29;20473;-73
2022/03/05 09:45:45;;;;;;;15.37;9.00;;;7.60;99.90;;;;;;4954420;29;20489;-73
2022/03/05 09:48:15;;;;;;;14.70;8.70;;;7.80;99.90;;;;;;4954656;28;20463;-73
2022/03/05 09:50:44;;;;;;;14.60;9.77;;;8.00;98.20;;;;;;4954558;28;20484;-73
2022/03/05 09:53:11;;;;;;;15.07;9.00;;;8.10;97.50;;;;;;4954665;28;20541;-73
2022/03/05 09:55:38;;;;;;;17.60;10.50;;;8.10;97.70;;;;;;4954580;29;20464;-73
2022/03/05 09:58:05;;;;;;;18.30;10.27;;;8.20;98.20;;;;;;4953546;28;20450;-73
2022/03/05 10:00:31;;;;;;;17.20;9.60;;;8.30;96.80;;;;;;4954204;28;20520;-74
2022/03/05 10:02:59;;;;;;;16.77;9.50;;;8.20;96.40;;;;;;4954617;28;20488;-73
2022/03/05 10:05:28;;;;;;;14.13;9.83;;;8.40;96.50;;;;;;4956123;28;20945;-74
2022/03/05 10:08:08;;;;;;;15.60;10.07;;;8.80;97.40;;;;;;4961297;28;20505;-74
2022/03/05 10:10:43;;;;;;;14.17;9.77;;;9.20;97.60;;;;;;4934398;29;20469;-73
2022/03/05 10:13:24;;;;;;;15.97;10.00;;;9.60;93.70;;;;;;4934867;29;20468;-74
2022/03/05 10:15:53;;;;;;;15.60;10.20;;;9.60;94.90;;;;;;4941153;29;20458;-73
2022/03/05 10:18:27;;;;;;;16.67;10.10;;;9.50;93.80;;;;;;4953761;28;20471;-73
2022/03/05 10:20:53;;;;;;;15.50;10.23;;;9.40;94.10;;;;;;4953182;28;20472;-74
2022/03/05 10:23:22;;;;;;;14.20;9.40;;;9.40;93.30;;;;;;4953628;28;20881;-74
2022/03/05 10:25:52;;;;;;;14.27;9.47;;;9.30;92.20;;;;;;4952475;28;20540;-74
2022/03/05 10:28:21;;;;;;;13.53;9.30;;;9.20;92.50;;;;;;4953228;28;20493;-74
2022/03/05 10:30:53;;;;;;;16.17;9.67;;;9.30;92.50;;;;;;4953700;28;20696;-73
2022/03/05 10:33:28;;;;;;;13.47;8.13;;;9.60;93.60;;;;;;4953608;28;20544;-74
2022/03/05 10:35:57;;;;;;;10.30;7.43;;;9.80;90.10;;;;;;4952086;28;20496;-73
2022/03/05 10:38:42;;;;;;;10.90;7.10;;;10.30;87.10;;;;;;4953224;28;20454;-73
2022/03/05 10:41:09;;;;;;;10.67;7.77;;;10.30;85.30;;;;;;4953364;28;20465;-73
2022/03/05 10:43:36;;;;;;;11.20;6.97;;;10.60;85.50;;;;;;4953681;28;20533;-74
2022/03/05 10:46:03;;;;;;;10.30;7.60;;;10.70;84.30;;;;;;4952127;28;20481;-73
2022/03/05 10:48:32;;;;;;;11.20;7.47;;;10.70;81.30;;;;;;4953332;28;20945;-73
2022/03/05 10:51:01;;;;;;;10.17;7.60;;;10.50;81.10;;;;;;4953498;28;20474;-73
2022/03/05 10:53:44;;;;;;;18.00;7.40;;;10.50;82.90;;;;;;4953599;28;20492;-73
2022/03/05 10:56:25;;;;;;;20.83;9.00;;;10.40;80.70;;;;;;4953008;28;20457;-73
2022/03/05 10:59:00;;;;;;;11.47;7.83;;;10.50;79.30;;;;;;4953139;29;20477;-73
2022/03/05 11:01:27;;;;;;;9.80;7.07;;;10.60;79.40;;;;;;4953291;28;21123;-73
2022/03/05 11:03:55;;;;;;;11.47;7.97;;;10.60;78.00;;;;;;4953698;29;20457;-73
2022/03/05 11:06:23;;;;;;;18.37;8.07;;;10.80;79.50;;;;;;4951856;28;20973;-73
2022/03/05 11:08:53;;;;;;;11.00;7.40;;;11.00;76.20;;;;;;4954978;28;20516;-74
2022/03/05 11:11:21;;;;;;;10.33;6.60;;;10.80;75.50;;;;;;4957402;28;20556;-73
2022/03/05 11:13:48;;;;;;;7.27;5.40;;;11.10;75.80;;;;;;4957134;28;20472;-73
2022/03/05 11:16:15;;;;;;;8.27;5.60;;;11.40;74.30;;;;;;4956219;29;20557;-73
2022/03/05 11:18:42;;;;;;;7.87;5.53;;;11.50;75.00;;;;;;4957041;29;20975;-73
2022/03/05 11:21:10;;;;;;;7.33;5.07;;;11.90;72.60;;;;;;4954494;28;20481;-73
2022/03/05 11:23:41;;;;;;;6.47;4.63;;;12.10;73.20;;;;;;4956976;28;20466;-73
2022/03/05 11:26:11;;;;;;;6.97;4.60;;;12.20;68.20;;;;;;4955697;29;20472;-73
2022/03/05 11:28:40;;;;;;;6.93;5.57;;;12.20;67.70;;;;;;4956439;28;20493;-73
2022/03/05 11:31:16;;;;;;;7.47;5.23;;;12.30;67.80;;;;;;4956389;28;20560;-73
2022/03/05 11:33:43;;;;;;;6.93;4.97;;;12.20;67.60;;;;;;4957197;28;20465;-72
2022/03/05 11:36:28;;;;;;;8.00;5.43;;;12.20;66.60;;;;;;4954951;28;20465;-73
2022/03/05 11:39:15;;;;;;;6.20;5.30;;;12.20;66.80;;;;;;4956285;28;20434;-74
2022/03/05 11:41:56;;;;;;;11.93;5.60;;;12.60;68.10;;;;;;4956324;28;20477;-73
2022/03/05 11:44:25;;;;;;;8.07;6.00;;;13.00;65.20;;;;;;4956421;28;20461;-74
2022/03/05 11:47:23;;;;;;;11.50;5.80;;;13.10;66.00;;;;;;4955337;28;20571;-72
2022/03/05 11:50:09;;;;;;;8.10;6.03;;;12.80;63.40;;;;;;4954983;28;21033;-73
2022/03/05 11:53:09;;;;;;;8.40;6.37;;;13.20;65.50;;;;;;4956303;28;21061;-72
2022/03/05 11:55:41;;;;;;;9.13;6.30;;;13.80;64.60;;;;;;4954148;28;20497;-72
2022/03/05 11:58:36;;;;;;;8.43;5.90;;;14.00;63.10;;;;;;4955856;28;20496;-73
2022/03/05 12:01:36;;;;;;;10.13;7.03;;;14.20;64.60;;;;;;4955163;28;20485;-73
2022/03/05 12:04:22;;;;;;;9.10;6.70;;;14.30;63.10;;;;;;4955511;28;20457;-74
2022/03/05 12:06:56;;;;;;;9.60;6.53;;;13.90;63.80;;;;;;4954858;28;20664;-73
2022/03/05 12:09:41;;;;;;;9.67;6.77;;;14.00;64.30;;;;;;4955099;29;20545;-73
2022/03/05 12:12:10;;;;;;;9.13;6.10;;;14.70;63.00;;;;;;4955492;28;20520;-73
2022/03/05 12:15:13;;;;;;;8.40;6.27;;;14.70;62.20;;;;;;4956005;29;21003;-73
2022/03/05 12:17:49;;;;;;;8.07;6.00;;;14.50;61.70;;;;;;4936469;29;20531;-73
2022/03/05 12:20:19;;;;;;;11.17;7.20;;;14.60;63.30;;;;;;4934742;29;20936;-73
2022/03/05 12:23:07;;;;;;;10.20;7.70;;;14.60;61.10;;;;;;4936677;29;20447;-73
2022/03/05 12:25:35;;;;;;;10.00;7.53;;;14.70;62.00;;;;;;4936539;29;20551;-73
2022/03/05 12:28:04;;;;;;;10.20;7.60;;;14.70;62.40;;;;;;4954765;28;20497;-73
2022/03/05 12:30:35;;;;;;;10.23;6.83;;;14.40;61.90;;;;;;4955094;28;20481;-73
2022/03/05 12:33:03;;;;;;;12.27;7.50;;;14.20;63.60;;;;;;4955726;28;20449;-73
2022/03/05 12:35:31;;;;;;;12.07;8.10;;;14.00;61.90;;;;;;4954296;28;20508;-73
2022/03/05 12:37:58;;;;;;;10.87;7.80;;;13.60;62.70;;;;;;4955646;28;20496;-73
2022/03/05 12:40:26;;;;;;;9.60;7.50;;;13.30;62.50;;;;;;4954855;28;20459;-73
2022/03/05 12:42:55;;;;;;;11.60;8.10;;;13.10;61.80;;;;;;4955093;28;20465;-73
2022/03/05 12:45:24;;;;;;;10.77;7.70;;;12.80;62.80;;;;;;4954522;28;20536;-73
2022/03/05 12:47:54;;;;;;;10.97;7.50;;;13.00;65.70;;;;;;4955171;28;20504;-73
2022/03/05 12:50:28;;;;;;;9.60;7.80;;;13.30;65.50;;;;;;4954567;28;20500;-73
2022/03/05 12:53:06;;;;;;;16.30;8.20;;;13.20;63.20;;;;;;4954992;28;20468;-73
2022/03/05 12:55:37;;;;;;;12.50;7.63;;;13.10;65.10;;;;;;4953927;28;20481;-73
2022/03/05 12:58:14;;;;;;;12.03;7.27;;;13.20;61.70;;;;;;4955457;28;20560;-73
2022/03/05 13:00:43;;;;;;;10.00;7.07;;;13.30;62.40;;;;;;4954241;28;20560;-73
2022/03/05 13:03:13;;;;;;;11.03;7.30;;;13.60;62.50;;;;;;4953598;28;20473;-73
2022/03/05 13:05:40;;;;;;;11.27;7.20;;;13.40;61.80;;;;;;4952824;28;20476;-73
2022/03/05 13:08:11;;;;;;;11.27;6.93;;;13.30;62.30;;;;;;4954073;28;20868;-73
2022/03/05 13:10:38;;;;;;;9.30;6.83;;;13.30;61.00;;;;;;4953929;28;20458;-73
2022/03/05 13:13:05;;;;;;;8.00;6.27;;;13.30;61.60;;;;;;4960650;28;20535;-73
2022/03/05 13:15:36;;;;;;;9.30;6.97;;;13.40;60.20;;;;;;4956719;28;20822;-74
2022/03/05 13:18:07;;;;;;;9.43;6.20;;;13.40;59.90;;;;;;4957879;28;20458;-74
2022/03/05 13:20:36;;;;;;;8.53;6.10;;;13.50;61.20;;;;;;4953282;28;20469;-74
2022/03/05 13:23:03;;;;;;;9.20;6.77;;;13.50;59.50;;;;;;4953719;28;20485;-74
2022/03/05 13:25:31;;;;;;;10.17;6.70;;;13.40;58.80;;;;;;4952294;28;20497;-73
2022/03/05 13:27:58;;;;;;;9.63;6.87;;;13.60;60.60;;;;;;4953202;28;20493;-74
2022/03/05 13:30:28;;;;;;;8.63;6.43;;;13.70;59.20;;;;;;4952852;28;20841;-74
2022/03/05 13:32:55;;;;;;;9.20;7.00;;;13.90;59.00;;;;;;4953244;28;20556;-74
2022/03/05 13:35:27;;;;;;;11.17;7.47;;;14.00;58.60;;;;;;4952634;28;20489;-73
2022/03/05 13:37:58;;;;;;;9.90;7.33;;;14.00;59.40;;;;;;4953505;28;20453;-73
2022/03/05 13:40:27;;;;;;;10.20;7.17;;;14.00;57.50;;;;;;4952781;28;20519;-73
2022/03/05 13:42:59;;;;;;;9.43;6.40;;;14.10;59.30;;;;;;4953675;28;20552;-74
2022/03/05 13:45:29;;;;;;;8.93;6.30;;;14.40;57.70;;;;;;4952470;28;20461;-74
2022/03/05 13:47:58;;;;;;;9.93;6.43;;;14.50;58.40;;;;;;4953223;28;20497;-74
2022/03/05 13:50:25;;;;;;;9.17;6.73;;;14.70;58.90;;;;;;4952726;28;20461;-73
2022/03/05 13:52:55;;;;;;;8.53;6.20;;;14.70;57.60;;;;;;4953625;28;20449;-74
2022/03/05 13:55:22;;;;;;;9.40;6.57;;;14.70;56.80;;;;;;4951565;28;20493;-74
2022/03/05 13:57:55;;;;;;;7.97;6.23;;;14.70;58.20;;;;;;4934355;29;20458;-74
2022/03/05 14:00:24;;;;;;;7.90;6.77;;;14.80;58.00;;;;;;4896369;29;1088637;-73
2022/03/05 14:02:52;;;;;;;9.23;6.40;;;14.80;56.60;;;;;;4934764;29;20458;-73
2022/03/05 14:05:21;;;;;;;10.43;6.57;;;14.80;57.20;;;;;;4936654;29;20465;-74
2022/03/05 14:07:50;;;;;;;8.57;6.40;;;14.80;56.50;;;;;;4953624;29;20873;-73
2022/03/05 14:10:20;;;;;;;9.07;6.70;;;14.80;57.80;;;;;;4952667;28;20544;-74
2022/03/05 14:12:49;;;;;;;8.70;6.30;;;14.90;57.00;;;;;;4954182;28;20989;-74
2022/03/05 14:15:16;;;;;;;8.03;6.47;;;14.80;57.00;;;;;;4953064;28;20481;-74
2022/03/05 14:17:45;;;;;;;10.30;6.47;;;14.80;57.70;;;;;;4953110;29;20534;-74
2022/03/05 14:20:16;;;;;;;9.37;6.63;;;14.80;57.00;;;;;;4953284;29;20508;-74
2022/03/05 14:22:45;;;;;;;9.13;6.47;;;14.70;56.70;;;;;;4953493;29;20537;-73
2022/03/05 14:25:19;;;;;;;10.43;7.20;;;14.70;56.70;;;;;;4951975;28;20548;-74
2022/03/05 14:27:47;;;;;;;9.30;6.60;;;14.60;56.60;;;;;;4953570;29;20497;-73
2022/03/05 14:30:15;;;;;;;9.47;6.47;;;14.50;56.00;;;;;;4953285;28;20462;-73
2022/03/05 14:32:44;;;;;;;9.33;6.80;;;14.50;56.60;;;;;;4953512;28;20545;-73
2022/03/05 14:35:12;;;;;;;11.40;7.43;;;14.30;56.50;;;;;;4952286;28;20465;-74
2022/03/05 14:37:42;;;;;;;14.57;8.50;;;14.20;56.70;;;;;;4953119;29;20457;-74
2022/03/05 14:40:11;;;;;;;12.30;7.90;;;14.10;56.40;;;;;;4952924;28;20464;-74
2022/03/05 14:42:39;;;;;;;11.13;7.57;;;14.00;57.10;;;;;;4953212;28;20467;-74
2022/03/05 14:45:09;;;;;;;7.93;6.33;;;14.10;56.40;;;;;;4952727;28;20838;-74
2022/03/05 14:47:36;;;;;;;9.77;6.87;;;14.10;56.60;;;;;;4949760;29;20464;-74
2022/03/05 14:50:03;;;;;;;8.83;6.90;;;14.20;57.50;;;;;;4953100;28;20467;-73
2022/03/05 14:52:30;;;;;;;8.20;6.47;;;14.10;56.90;;;;;;4953468;28;21071;-73
2022/03/05 14:54:57;;;;;;;10.60;6.88;;;14.00;56.20;;;;;;4953157;28;20456;-74
2022/03/05 14:57:24;;;;;;;10.00;7.17;;;13.90;56.40;;;;;;4952126;28;20281;-73
2022/03/05 14:59:53;;;;;;;9.90;6.80;;;13.90;57.10;;;;;;4952771;28;20537;-74
2022/03/05 15:02:20;;;;;;;11.40;7.10;;;13.80;55.60;;;;;;4952707;28;20479;-73
2022/03/05 15:04:47;;;;;;;11.57;6.80;;;13.90;56.80;;;;;;4953661;28;20537;-74
2022/03/05 15:07:15;;;;;;;11.37;6.83;;;14.10;56.40;;;;;;4951787;28;20482;-74
2022/03/05 15:09:42;;;;;;;8.30;6.67;;;14.20;56.60;;;;;;4952305;28;20529;-74
2022/03/05 15:12:09;;;;;;;11.23;7.33;;;14.20;56.20;;;;;;4953330;28;20540;-75
2022/03/05 15:14:37;;;;;;;10.73;7.27;;;14.20;55.70;;;;;;4953162;28;21044;-74
2022/03/05 15:17:06;;;;;;;9.27;6.53;;;14.00;55.80;;;;;;4951423;28;20574;-74
2022/03/05 15:19:33;;;;;;;9.27;6.63;;;13.90;56.30;;;;;;4952534;29;20465;-74
2022/03/05 15:22:01;;;;;;;10.07;7.10;;;14.00;56.50;;;;;;4952840;28;20998;-73
2022/03/05 15:24:28;;;;;;;11.33;7.80;;;14.10;56.50;;;;;;4952876;28;20496;-74
2022/03/05 15:26:54;;;;;;;11.20;7.00;;;14.30;57.00;;;;;;4951440;28;20461;-73
2022/03/05 15:29:25;;;;;;;10.13;6.97;;;14.40;57.00;;;;;;4952192;29;20524;-74
2022/03/05 15:31:56;;;;;;;9.30;6.83;;;14.40;56.10;;;;;;4952974;28;20519;-73
2022/03/05 15:34:24;;;;;;;9.43;6.63;;;14.40;56.60;;;;;;4953718;28;20837;-73
2022/03/05 15:36:52;;;;;;;9.93;7.30;;;14.30;55.70;;;;;;4951376;28;20535;-74
2022/03/05 15:39:19;;;;;;;9.20;6.77;;;14.20;55.10;;;;;;4952180;28;20449;-74
2022/03/05 15:41:47;;;;;;;9.33;6.70;;;14.30;55.70;;;;;;4952932;28;20509;-73
2022/03/05 15:44:14;;;;;;;11.90;7.40;;;14.50;55.70;;;;;;4953355;28;20845;-74
2022/03/05 15:47:02;;;;;;;9.90;7.47;;;14.60;56.00;;;;;;4951265;28;21037;-74
2022/03/05 15:49:30;;;;;;;8.90;6.43;;;14.70;55.30;;;;;;4951468;28;20740;-73
2022/03/05 15:51:57;;;;;;;14.00;8.13;;;14.70;55.40;;;;;;4952950;28;20491;-73
2022/03/05 15:54:24;;;;;;;11.97;8.20;;;14.90;55.60;;;;;;4952807;28;20855;-74
2022/03/05 15:56:51;;;;;;;8.30;6.73;;;15.10;56.10;;;;;;4955358;28;20463;-72
2022/03/05 15:59:19;;;;;;;17.50;13.00;;;15.20;54.90;;;;;;4955990;28;20544;-72
2022/03/05 16:01:46;;;;;;;10.33;7.90;;;15.20;55.40;;;;;;4955966;28;20493;-72
2022/03/05 16:04:14;;;;;;;10.80;8.17;;;15.10;55.50;;;;;;4955969;28;20497;-72
2022/03/05 16:06:43;;;;;;;10.07;7.47;;;15.00;55.30;;;;;;4955938;28;20504;-72
2022/03/05 16:09:09;;;;;;;10.03;7.07;;;14.60;54.60;;;;;;4955778;28;21013;-72
2022/03/05 16:11:38;;;;;;;11.03;7.50;;;14.00;55.00;;;;;;4956792;28;21004;-74
2022/03/05 16:14:05;;;;;;;9.70;7.40;;;13.60;55.70;;;;;;4956710;28;20599;-73
2022/03/05 16:16:32;;;;;;;11.00;7.73;;;13.30;55.90;;;;;;4955343;28;20989;-71
2022/03/05 16:18:59;;;;;;;11.53;8.03;;;12.80;55.80;;;;;;4955512;29;20496;-71
2022/03/05 16:21:25;;;;;;;11.50;7.53;;;12.40;56.60;;;;;;4955970;28;20469;-71
2022/03/05 16:23:54;;;;;;;15.40;8.73;;;11.80;56.80;;;;;;4955333;29;20872;-71
2022/03/05 16:26:23;;;;;;;12.27;8.07;;;11.30;57.10;;;;;;4955287;28;20538;-71
2022/03/05 16:28:51;;;;;;;13.97;7.80;;;10.80;57.30;;;;;;4955301;28;20500;-71
2022/03/05 16:31:19;;;;;;;12.37;8.20;;;10.50;58.10;;;;;;4955530;28;20482;-70
2022/03/05 16:33:47;;;;;;;12.17;8.40;;;10.20;58.20;;;;;;4955831;28;20466;-71
2022/03/05 16:36:14;;;;;;;11.80;7.87;;;9.90;58.80;;;;;;4955128;28;20446;-71
2022/03/05 16:38:41;;;;;;;12.53;7.80;;;9.70;59.30;;;;;;4955454;28;20544;-71
2022/03/05 16:41:09;;;;;;;15.93;7.53;;;9.50;59.70;;;;;;4955536;28;20564;-73
2022/03/05 16:43:38;;;;;;;14.73;8.87;;;9.50;60.00;;;;;;4955942;29;20245;-71
2022/03/05 16:46:06;;;;;;;13.50;8.63;;;9.40;60.10;;;;;;4954445;28;20556;-71
2022/03/05 16:48:33;;;;;;;10.97;7.70;;;9.20;59.70;;;;;;4955290;28;20503;-71
2022/03/05 16:51:01;;;;;;;19.73;9.60;;;9.10;60.60;;;;;;4954898;28;20564;-71
2022/03/05 16:53:28;;;;;;;15.47;7.93;;;8.90;60.60;;;;;;4955351;28;20513;-71
2022/03/05 16:55:55;;;;;;;12.20;7.90;;;8.80;61.50;;;;;;4954555;28;20471;-71
2022/03/05 16:58:29;;;;;;;12.93;7.60;;;8.70;61.40;;;;;;4955815;28;20479;-72
2022/03/05 17:00:56;;;;;;;12.90;8.23;;;8.80;61.50;;;;;;4954163;28;20495;-71
2022/03/05 17:03:23;;;;;;;12.20;8.23;;;8.60;61.60;;;;;;4955893;28;20460;-73
2022/03/05 17:05:50;;;;;;;12.10;8.23;;;8.50;61.70;;;;;;4956324;28;20544;-73
2022/03/05 17:08:17;;;;;;;12.73;8.33;;;8.30;62.10;;;;;;4957152;28;20457;-73
2022/03/05 17:10:44;;;;;;;12.40;8.30;;;8.30;62.90;;;;;;4960185;28;20476;-73
2022/03/05 17:13:11;;;;;;;13.37;8.60;;;8.20;62.50;;;;;;4960392;28;20481;-73
2022/03/05 17:15:42;;;;;;;13.20;7.70;;;8.10;62.90;;;;;;4957920;28;20903;-74
2022/03/05 17:18:09;;;;;;;10.43;7.50;;;8.00;62.70;;;;;;4960658;28;20577;-73
2022/03/05 17:20:41;;;;;;;10.07;7.50;;;7.90;62.70;;;;;;4958088;28;20480;-74
2022/03/05 17:23:36;;;;;;;11.20;7.40;;;7.70;62.80;;;;;;4959374;28;20453;-73
2022/03/05 17:26:04;;;;;;;10.87;7.27;;;7.60;64.50;;;;;;4958276;28;20460;-74
2022/03/05 17:28:31;;;;;;;12.10;8.10;;;7.50;63.70;;;;;;4961041;29;20501;-73
2022/03/05 17:30:59;;;;;;;13.13;8.00;;;7.50;63.40;;;;;;4958795;28;20513;-73
2022/03/05 17:33:26;;;;;;;14.33;8.27;;;7.40;63.70;;;;;;4959830;28;20529;-73
2022/03/05 17:35:54;;;;;;;13.40;8.13;;;7.30;64.10;;;;;;4958563;28;20885;-73
2022/03/05 17:38:23;;;;;;;10.90;7.20;;;7.30;64.20;;;;;;4958296;28;20923;-73
2022/03/05 17:40:50;;;;;;;13.30;8.67;;;7.20;64.60;;;;;;4958307;28;20485;-73
2022/03/05 17:43:16;;;;;;;14.53;9.30;;;7.20;64.20;;;;;;4958147;28;20834;-73
2022/03/05 17:45:43;;;;;;;16.73;8.67;;;7.10;64.20;;;;;;4959069;28;20484;-75
2022/03/05 17:48:13;;;;;;;13.77;9.00;;;7.00;64.30;;;;;;4959697;29;20549;-74
2022/03/05 17:50:41;;;;;;;14.03;9.07;;;6.90;65.00;;;;;;4960341;28;20498;-73
2022/03/05 17:53:08;;;;;;;17.10;9.40;;;6.90;64.80;;;;;;4959602;28;20462;-73